createdAt,value
2018-05-11T00:00:33.749Z,9.60
2018-05-11T00:03:02.127Z,8.20
2018-05-11T00:05:30.508Z,8.57
2018-05-11T00:07:58.880Z,7.80
2018-05-11T00:10:27.302Z,7.83
2018-05-11T00:12:55.669Z,7.13
2018-05-11T00:15:24.043Z,7.97
2018-05-11T00:17:52.428Z,9.03
2018-05-11T00:20:20.808Z,7.37
2018-05-11T00:22:49.214Z,7.60
2018-05-11T00:25:17.595Z,8.13
2018-05-11T00:27:45.977Z,7.80
2018-05-11T00:30:14.352Z,8.03
2018-05-11T00:32:42.720Z,7.87
2018-05-11T00:35:11.108Z,7.33
2018-05-11T00:37:39.473Z,7.97
2018-05-11T00:40:08.356Z,7.00
2018-05-11T00:42:36.742Z,7.90
2018-05-11T00:45:07.641Z,8.20
2018-05-11T00:47:36.027Z,7.33
2018-05-11T00:50:06.811Z,6.47
2018-05-11T00:52:36.986Z,6.37
2018-05-11T00:55:16.380Z,5.90
2018-05-11T00:57:44.758Z,6.50
2018-05-11T01:00:13.145Z,5.47
2018-05-11T01:02:41.518Z,5.93
2018-05-11T01:05:09.913Z,5.30
2018-05-11T01:07:38.279Z,6.63
2018-05-11T01:10:09.135Z,6.00
2018-05-11T01:12:38.003Z,5.07
2018-05-11T01:15:09.454Z,6.00
2018-05-11T01:17:37.819Z,5.77
2018-05-11T01:20:06.477Z,6.33
2018-05-11T01:22:34.892Z,4.87
2018-05-11T01:25:03.292Z,4.67
2018-05-11T01:27:31.683Z,4.50
2018-05-11T01:30:00.078Z,5.90
2018-05-11T01:32:28.110Z,5.20
2018-05-11T01:34:56.489Z,4.60
2018-05-11T01:37:24.867Z,4.80
2018-05-11T01:39:53.307Z,4.60
2018-05-11T01:42:21.822Z,5.53
2018-05-11T01:44:50.185Z,4.70
2018-05-11T01:47:18.554Z,4.90
2018-05-11T01:49:46.923Z,4.30
2018-05-11T01:52:16.082Z,5.30
2018-05-11T01:54:44.222Z,4.50
2018-05-11T01:57:12.614Z,4.30
2018-05-11T01:59:40.971Z,3.80
2018-05-11T02:02:09.364Z,4.37
2018-05-11T02:04:37.767Z,4.30
2018-05-11T02:07:05.981Z,4.00
2018-05-11T02:09:34.349Z,3.97
2018-05-11T02:12:02.745Z,4.13
2018-05-11T02:14:31.109Z,4.00
2018-05-11T02:16:59.711Z,4.03
2018-05-11T02:19:28.075Z,4.00
2018-05-11T02:21:56.443Z,4.83
2018-05-11T02:24:24.816Z,4.30
2018-05-11T02:26:53.592Z,4.60
2018-05-11T02:29:22.106Z,4.90
2018-05-11T02:31:51.451Z,3.77
2018-05-11T02:34:20.057Z,4.00
2018-05-11T02:36:48.439Z,4.27
2018-05-11T02:39:16.816Z,3.60
2018-05-11T02:41:44.973Z,3.80
2018-05-11T02:44:13.345Z,4.50
2018-05-11T02:46:41.727Z,4.63
2018-05-11T02:49:10.099Z,4.20
2018-05-11T02:51:38.461Z,4.37
2018-05-11T02:54:06.845Z,4.83
2018-05-11T02:56:34.977Z,4.43
2018-05-11T02:59:03.361Z,5.20
2018-05-11T03:01:31.838Z,4.47
2018-05-11T03:04:01.171Z,4.47
2018-05-11T03:06:29.494Z,4.77
2018-05-11T03:08:57.864Z,4.40
2018-05-11T03:11:26.247Z,4.97
2018-05-11T03:13:54.629Z,3.97
2018-05-11T03:16:23.008Z,4.70
2018-05-11T03:18:51.386Z,4.63
2018-05-11T03:21:19.753Z,4.00
2018-05-11T03:23:48.151Z,5.10
2018-05-11T03:26:16.517Z,4.90
2018-05-11T03:28:45.534Z,5.10
2018-05-11T03:31:14.831Z,5.10
2018-05-11T03:33:43.209Z,5.00
2018-05-11T03:36:11.603Z,5.40
2018-05-11T03:38:39.970Z,5.63
2018-05-11T03:41:08.878Z,6.07
2018-05-11T03:43:37.252Z,5.60
2018-05-11T03:46:05.636Z,4.87
2018-05-11T03:48:34.005Z,5.43
2018-05-11T03:51:02.376Z,5.60
2018-05-11T03:53:30.737Z,5.00
2018-05-11T03:55:59.141Z,4.80
2018-05-11T03:58:27.522Z,4.93
2018-05-11T04:00:55.881Z,5.30
2018-05-11T04:03:35.260Z,5.60
2018-05-11T04:06:04.777Z,4.57
2018-05-11T04:08:51.344Z,5.10
2018-05-11T04:11:20.561Z,5.53
2018-05-11T04:13:48.932Z,5.80
2018-05-11T04:16:17.317Z,6.30
2018-05-11T04:18:45.693Z,6.00
2018-05-11T04:21:14.151Z,6.13
2018-05-11T04:23:42.548Z,6.27
2018-05-11T04:26:10.909Z,6.20
2018-05-11T04:28:39.278Z,6.57
2018-05-11T04:31:07.646Z,6.47
2018-05-11T04:33:36.038Z,6.33
2018-05-11T04:36:04.402Z,6.47
2018-05-11T04:38:32.778Z,6.30
2018-05-11T04:41:01.154Z,7.07
2018-05-11T04:43:29.553Z,6.20
2018-05-11T04:45:58.645Z,6.33
2018-05-11T04:48:27.033Z,6.63
2018-05-11T04:50:55.407Z,6.57
2018-05-11T04:53:23.790Z,7.30
2018-05-11T04:55:51.944Z,7.67
2018-05-11T04:58:20.317Z,7.77
2018-05-11T05:00:48.685Z,7.30
2018-05-11T05:03:17.137Z,6.90
2018-05-11T05:05:45.628Z,7.70
2018-05-11T05:08:13.997Z,6.20
2018-05-11T05:10:43.101Z,7.13
2018-05-11T05:13:11.475Z,7.63
2018-05-11T05:15:39.853Z,8.13
2018-05-11T05:18:08.863Z,8.40
2018-05-11T05:20:37.227Z,9.40
2018-05-11T05:23:05.860Z,8.10
2018-05-11T05:25:34.236Z,8.47
2018-05-11T05:28:03.634Z,9.17
2018-05-11T05:30:32.017Z,8.90
2018-05-11T05:33:00.484Z,8.40
2018-05-11T05:35:28.985Z,9.80
2018-05-11T05:37:57.357Z,9.80
2018-05-11T05:40:25.741Z,10.13
2018-05-11T05:42:53.991Z,12.40
2018-05-11T05:45:22.365Z,11.67
2018-05-11T05:47:50.738Z,10.40
2018-05-11T05:50:20.322Z,10.77
2018-05-11T05:52:49.541Z,11.07
2018-05-11T05:55:20.458Z,11.23
2018-05-11T05:57:49.471Z,11.77
2018-05-11T06:00:19.368Z,12.97
2018-05-11T06:02:48.018Z,12.03
2018-05-11T06:05:18.418Z,13.07
2018-05-11T06:07:46.793Z,13.30
2018-05-11T06:10:15.197Z,12.10
2018-05-11T06:12:43.602Z,13.33
2018-05-11T06:15:12.028Z,13.87
2018-05-11T06:17:40.457Z,12.53
2018-05-11T06:20:09.024Z,12.77
2018-05-11T06:22:37.396Z,12.43
2018-05-11T06:25:05.819Z,12.77
2018-05-11T06:27:34.216Z,12.10
2018-05-11T06:30:02.604Z,12.50
2018-05-11T06:32:30.992Z,13.27
2018-05-11T06:35:00.281Z,12.93
2018-05-11T06:37:28.680Z,12.47
2018-05-11T06:39:57.063Z,12.50
2018-05-11T06:42:25.449Z,11.07
2018-05-11T06:44:53.817Z,12.30
2018-05-11T06:47:22.181Z,10.70
2018-05-11T06:49:50.550Z,10.50
2018-05-11T06:52:18.930Z,10.33
2018-05-11T06:54:47.305Z,10.30
2018-05-11T06:57:15.691Z,10.27
2018-05-11T06:59:44.163Z,10.73
2018-05-11T07:02:12.543Z,10.20
2018-05-11T07:04:40.940Z,9.23
2018-05-11T07:07:09.323Z,9.97
2018-05-11T07:09:38.691Z,13.30
2018-05-11T07:12:07.069Z,11.90
2018-05-11T07:14:35.455Z,12.43
2018-05-11T07:17:04.349Z,13.57
2018-05-11T07:19:32.768Z,7.97
2018-05-11T07:22:01.369Z,9.50
2018-05-11T07:24:29.775Z,10.03
2018-05-11T07:26:58.195Z,10.17
2018-05-11T07:29:26.568Z,9.20
2018-05-11T07:31:54.979Z,9.90
2018-05-11T07:34:23.365Z,9.70
2018-05-11T07:36:51.761Z,9.97
2018-05-11T07:39:20.138Z,9.23
2018-05-11T07:41:48.513Z,9.20
2018-05-11T07:44:16.897Z,9.40
2018-05-11T07:46:45.280Z,11.37
2018-05-11T07:49:13.658Z,9.70
2018-05-11T07:51:42.085Z,28.00
2018-05-11T07:54:10.663Z,9.93
2018-05-11T07:56:39.113Z,15.20
2018-05-11T07:59:07.501Z,13.73
2018-05-11T08:01:35.937Z,9.10
2018-05-11T08:04:04.404Z,9.37
2018-05-11T08:06:32.909Z,9.60
2018-05-11T08:09:01.285Z,10.13
2018-05-11T08:11:30.553Z,8.33
2018-05-11T08:13:58.930Z,10.10
2018-05-11T08:16:28.090Z,9.03
2018-05-11T08:18:56.325Z,8.10
2018-05-11T08:21:24.798Z,8.77
2018-05-11T08:23:54.014Z,8.97
2018-05-11T08:26:22.413Z,10.07
2018-05-11T08:28:50.777Z,8.63
2018-05-11T08:31:19.222Z,9.50
2018-05-11T08:33:47.595Z,8.17
2018-05-11T08:36:15.957Z,9.03
2018-05-11T08:38:44.327Z,7.73
2018-05-11T08:41:12.696Z,8.47
2018-05-11T08:43:41.059Z,7.50
2018-05-11T08:46:09.435Z,7.20
2018-05-11T08:48:37.802Z,7.87
2018-05-11T08:51:06.169Z,8.70
2018-05-11T08:53:34.552Z,8.60
2018-05-11T08:56:02.743Z,7.20
2018-05-11T08:58:31.118Z,7.30
2018-05-11T09:00:59.502Z,7.87
2018-05-11T09:03:27.988Z,6.97
2018-05-11T09:05:56.378Z,8.07
2018-05-11T09:08:24.878Z,7.80
2018-05-11T09:10:53.365Z,8.33
2018-05-11T09:13:21.744Z,8.00
2018-05-11T09:15:50.130Z,7.53
2018-05-11T09:18:18.514Z,8.77
2018-05-11T09:20:46.877Z,8.50
2018-05-11T09:23:15.258Z,10.00
2018-05-11T09:25:43.659Z,8.10
2018-05-11T09:28:12.809Z,8.67
2018-05-11T09:30:41.378Z,8.40
2018-05-11T09:33:09.765Z,9.40
2018-05-11T09:35:38.573Z,8.73
2018-05-11T09:38:07.007Z,8.60
2018-05-11T09:40:35.398Z,8.10
2018-05-11T09:43:03.780Z,8.33
2018-05-11T09:45:32.157Z,7.83
2018-05-11T09:48:00.539Z,7.97
2018-05-11T09:50:28.913Z,7.80
2018-05-11T09:52:57.121Z,8.50
2018-05-11T09:55:25.538Z,8.23
2018-05-11T09:57:54.758Z,8.63
2018-05-11T10:00:26.087Z,9.30
2018-05-11T10:02:54.564Z,8.03
2018-05-11T10:05:23.079Z,8.07
2018-05-11T10:07:51.822Z,7.80
2018-05-11T10:10:21.304Z,9.17
2018-05-11T10:12:49.703Z,8.87
2018-05-11T10:15:22.964Z,7.70
2018-05-11T10:17:51.375Z,9.27
2018-05-11T10:20:21.714Z,8.93
2018-05-11T10:22:50.098Z,8.57
2018-05-11T10:25:19.621Z,9.00
2018-05-11T10:27:48.089Z,9.57
2018-05-11T10:30:16.488Z,9.93
2018-05-11T10:32:44.877Z,11.67
2018-05-11T10:35:15.818Z,10.20
2018-05-11T10:37:44.323Z,9.73
2018-05-11T10:40:15.754Z,9.70
2018-05-11T10:42:45.661Z,10.53
2018-05-11T10:45:14.062Z,11.93
2018-05-11T10:47:42.451Z,12.70
2018-05-11T10:50:10.847Z,13.40
2018-05-11T10:52:39.225Z,13.40
2018-05-11T10:55:07.316Z,12.90
2018-05-11T10:57:35.765Z,14.43
2018-05-11T11:00:03.579Z,12.33
2018-05-11T11:02:31.958Z,14.27
2018-05-11T11:05:00.349Z,14.83
2018-05-11T11:07:28.722Z,13.60
2018-05-11T11:09:57.115Z,12.63
2018-05-11T11:12:25.492Z,11.43
2018-05-11T11:14:53.902Z,13.77
2018-05-11T11:17:22.067Z,12.73
2018-05-11T11:19:50.478Z,13.30
2018-05-11T11:22:18.856Z,13.33
2018-05-11T11:24:47.229Z,12.17
2018-05-11T11:27:15.617Z,11.27
2018-05-11T11:29:44.033Z,13.20
2018-05-11T11:32:12.421Z,12.70
2018-05-11T11:34:40.807Z,11.80
2018-05-11T11:37:09.376Z,12.20
2018-05-11T11:39:37.768Z,11.47
2018-05-11T11:42:06.234Z,11.10
2018-05-11T11:44:34.737Z,11.03
2018-05-11T11:47:03.132Z,13.57
2018-05-11T11:49:31.516Z,11.27
2018-05-11T11:51:59.892Z,9.90
2018-05-11T11:54:28.269Z,10.97
2018-05-11T11:56:57.262Z,10.10
2018-05-11T11:59:25.660Z,11.63
2018-05-11T12:01:54.066Z,10.20
2018-05-11T12:04:22.608Z,9.10
2018-05-11T12:06:50.751Z,7.73
2018-05-11T12:09:19.129Z,9.13
2018-05-11T12:11:47.517Z,10.03
2018-05-11T12:14:16.113Z,13.40
2018-05-11T12:16:44.503Z,9.03
2018-05-11T12:19:12.887Z,9.47
2018-05-11T12:21:41.281Z,10.30
2018-05-11T12:24:09.694Z,9.17
2018-05-11T12:26:38.072Z,11.33
2018-05-11T12:29:06.473Z,9.00
2018-05-11T12:31:34.851Z,8.57
2018-05-11T12:34:03.223Z,8.60
2018-05-11T12:36:31.619Z,7.90
2018-05-11T12:39:00.004Z,9.20
2018-05-11T12:41:28.442Z,9.50
2018-05-11T12:43:56.809Z,11.37
2018-05-11T12:46:25.357Z,10.93
2018-05-11T12:48:53.752Z,10.00
2018-05-11T12:51:22.209Z,8.80
2018-05-11T12:53:50.739Z,9.90
2018-05-11T12:56:19.112Z,9.07
2018-05-11T12:58:47.506Z,8.23
2018-05-11T13:01:15.872Z,7.70
2018-05-11T13:03:44.269Z,8.10
2018-05-11T13:06:12.679Z,7.80
2018-05-11T13:08:41.050Z,7.53
2018-05-11T13:11:09.457Z,8.50
2018-05-11T13:13:37.893Z,9.20
2018-05-11T13:16:06.272Z,7.70
2018-05-11T13:18:34.708Z,9.13
2018-05-11T13:21:03.163Z,8.63
2018-05-11T13:23:31.527Z,7.40
2018-05-11T13:25:59.928Z,6.50
2018-05-11T13:28:28.304Z,5.70
2018-05-11T13:30:56.678Z,7.03
2018-05-11T13:33:25.060Z,6.93
2018-05-11T13:35:53.484Z,6.77
2018-05-11T13:38:21.854Z,7.33
2018-05-11T13:40:50.225Z,5.80
2018-05-11T13:43:18.409Z,5.77
2018-05-11T13:45:46.780Z,5.50
2018-05-11T13:48:15.272Z,5.83
2018-05-11T13:50:43.754Z,5.80
2018-05-11T13:53:12.126Z,4.70
2018-05-11T13:55:40.528Z,4.40
2018-05-11T13:58:08.911Z,5.20
2018-05-11T14:00:37.347Z,5.20
2018-05-11T14:03:05.724Z,7.20
2018-05-11T14:05:34.104Z,6.00
2018-05-11T14:08:02.519Z,4.17
2018-05-11T14:10:30.889Z,5.10
2018-05-11T14:12:59.260Z,3.70
2018-05-11T14:15:27.880Z,5.30
2018-05-11T14:17:56.261Z,4.43
2018-05-11T14:20:24.635Z,7.10
2018-05-11T14:22:53.003Z,5.90
2018-05-11T14:25:21.581Z,4.80
2018-05-11T14:27:49.973Z,6.33
2018-05-11T14:30:18.548Z,4.80
2018-05-11T14:32:47.021Z,6.03
2018-05-11T14:35:15.415Z,6.27
2018-05-11T14:37:43.826Z,5.90
2018-05-11T14:40:12.286Z,6.10
2018-05-11T14:42:40.692Z,6.40
2018-05-11T14:45:09.088Z,6.97
2018-05-11T14:47:37.466Z,7.30
2018-05-11T14:50:05.873Z,6.10
2018-05-11T14:52:34.293Z,6.10
2018-05-11T14:55:02.441Z,7.33
2018-05-11T14:57:30.829Z,7.50
2018-05-11T14:59:59.199Z,5.57
2018-05-11T15:02:27.565Z,6.60
2018-05-11T15:04:55.943Z,5.43
2018-05-11T15:07:24.328Z,6.00
2018-05-11T15:09:52.725Z,6.30
2018-05-11T15:12:21.092Z,6.43
2018-05-11T15:14:49.465Z,5.10
2018-05-11T15:17:17.680Z,6.23
2018-05-11T15:19:46.894Z,5.67
2018-05-11T15:22:16.723Z,5.77
2018-05-11T15:24:45.105Z,6.40
2018-05-11T15:27:13.480Z,6.30
2018-05-11T15:29:41.866Z,5.43
2018-05-11T15:32:10.439Z,5.63
2018-05-11T15:34:38.523Z,5.50
2018-05-11T15:37:06.894Z,5.63
2018-05-11T15:39:35.314Z,5.53
2018-05-11T15:42:03.723Z,5.13
2018-05-11T15:44:32.128Z,6.70
2018-05-11T15:47:00.522Z,7.07
2018-05-11T15:49:28.890Z,6.50
2018-05-11T15:51:57.275Z,5.33
2018-05-11T15:54:25.653Z,5.10
2018-05-11T15:56:54.054Z,5.90
2018-05-11T15:59:22.434Z,5.97
2018-05-11T16:01:50.798Z,7.43
2018-05-11T16:04:19.218Z,6.97
2018-05-11T16:06:47.592Z,5.90
2018-05-11T16:09:16.016Z,7.60
2018-05-11T16:11:45.589Z,6.60
2018-05-11T16:14:14.001Z,6.83
2018-05-11T16:16:42.378Z,6.87
2018-05-11T16:19:11.717Z,6.90
2018-05-11T16:21:40.107Z,7.53
2018-05-11T16:24:08.474Z,5.10
2018-05-11T16:26:36.850Z,8.40
2018-05-11T16:29:05.729Z,5.90
2018-05-11T16:31:35.017Z,6.50
2018-05-11T16:34:03.423Z,6.70
2018-05-11T16:36:31.829Z,6.73
2018-05-11T16:39:00.207Z,5.90
2018-05-11T16:41:28.590Z,6.00
2018-05-11T16:43:57.046Z,6.80
2018-05-11T16:46:26.237Z,7.87
2018-05-11T16:48:54.601Z,7.43
2018-05-11T16:51:22.750Z,7.30
2018-05-11T16:53:51.650Z,7.50
2018-05-11T16:56:20.185Z,6.87
2018-05-11T16:58:48.565Z,7.23
2018-05-11T17:01:16.978Z,8.23
2018-05-11T17:03:45.352Z,6.43
2018-05-11T17:06:13.765Z,8.23
2018-05-11T17:08:42.158Z,6.30
2018-05-11T17:11:10.533Z,6.80
2018-05-11T17:13:38.939Z,4.97
2018-05-11T17:16:07.316Z,6.80
2018-05-11T17:18:35.700Z,7.23
2018-05-11T17:21:04.091Z,5.90
2018-05-11T17:23:32.469Z,7.10
2018-05-11T17:26:00.842Z,5.87
2018-05-11T17:28:29.852Z,7.27
2018-05-11T17:30:58.237Z,7.10
2018-05-11T17:33:27.640Z,7.90
2018-05-11T17:35:57.116Z,7.13
2018-05-11T17:38:25.507Z,6.53
2018-05-11T17:40:53.889Z,6.80
2018-05-11T17:43:22.901Z,5.53
2018-05-11T17:45:53.506Z,6.80
2018-05-11T17:48:21.894Z,6.53
2018-05-11T17:50:50.285Z,5.83
2018-05-11T17:53:18.841Z,5.80
2018-05-11T17:55:47.260Z,6.80
2018-05-11T17:58:15.676Z,6.30
2018-05-11T18:00:44.085Z,8.10
2018-05-11T18:03:12.552Z,7.87
2018-05-11T18:05:41.264Z,7.10
2018-05-11T18:08:09.665Z,8.03
2018-05-11T18:10:38.083Z,8.03
2018-05-11T18:13:06.792Z,7.00
2018-05-11T18:15:35.192Z,7.00
2018-05-11T18:18:03.574Z,6.90
2018-05-11T18:20:31.975Z,7.67
2018-05-11T18:23:00.425Z,6.87
2018-05-11T18:25:29.081Z,8.00
2018-05-11T18:27:57.452Z,6.87
2018-05-11T18:30:26.757Z,6.87
2018-05-11T18:32:55.136Z,6.37
2018-05-11T18:35:26.274Z,7.07
2018-05-11T18:37:54.659Z,7.50
2018-05-11T18:40:24.780Z,7.13
2018-05-11T18:42:53.768Z,8.90
2018-05-11T18:45:25.156Z,11.10
2018-05-11T18:47:53.578Z,9.37
2018-05-11T18:50:23.323Z,10.00
2018-05-11T18:52:51.847Z,16.23
2018-05-11T18:55:22.006Z,10.37
2018-05-11T18:57:50.404Z,9.43
2018-05-11T19:00:18.826Z,8.77
2018-05-11T19:02:47.226Z,8.13
2018-05-11T19:05:18.042Z,8.90
2018-05-11T19:07:46.693Z,8.83
2018-05-11T19:10:15.719Z,9.70
2018-05-11T19:12:45.280Z,8.50
2018-05-11T19:15:14.665Z,9.03
2018-05-11T19:17:43.272Z,7.80
2018-05-11T19:20:11.649Z,10.47
2018-05-11T19:22:40.018Z,10.20
2018-05-11T19:25:08.425Z,10.10
2018-05-11T19:27:36.967Z,8.67
2018-05-11T19:30:05.042Z,7.80
2018-05-11T19:32:33.441Z,8.73
2018-05-11T19:35:02.476Z,9.60
2018-05-11T19:37:30.861Z,8.50
2018-05-11T19:39:59.546Z,9.67
2018-05-11T19:42:27.942Z,8.53
2018-05-11T19:44:56.541Z,8.03
2018-05-11T19:47:24.931Z,8.10
2018-05-11T19:49:53.321Z,8.10
2018-05-11T19:52:21.704Z,9.20
2018-05-11T19:54:50.084Z,7.90
2018-05-11T19:57:18.577Z,8.37
2018-05-11T19:59:47.043Z,9.20
2018-05-11T20:02:16.205Z,9.03
2018-05-11T20:04:45.562Z,8.87
2018-05-11T20:07:14.035Z,8.30
2018-05-11T20:09:42.414Z,8.30
2018-05-11T20:12:10.795Z,8.50
2018-05-11T20:14:39.237Z,10.10
2018-05-11T20:17:07.637Z,10.57
2018-05-11T20:19:36.052Z,9.20
2018-05-11T20:22:04.441Z,9.33
2018-05-11T20:24:32.813Z,9.70
2018-05-11T20:27:01.196Z,8.97
2018-05-11T20:29:29.576Z,7.73
2018-05-11T20:31:58.157Z,9.43
2018-05-11T20:34:26.534Z,8.90
2018-05-11T20:36:55.686Z,9.67
2018-05-11T20:39:24.956Z,9.83
2018-05-11T20:41:53.338Z,9.30
2018-05-11T20:44:21.734Z,10.67
2018-05-11T20:46:50.122Z,11.63
2018-05-11T20:49:18.504Z,10.00
2018-05-11T20:51:46.882Z,9.60
2018-05-11T20:54:15.258Z,9.20
2018-05-11T20:56:43.627Z,9.27
2018-05-11T20:59:12.040Z,10.70
2018-05-11T21:01:40.286Z,11.50
2018-05-11T21:04:08.674Z,10.37
2018-05-11T21:06:37.055Z,13.37
2018-05-11T21:09:04.910Z,11.43
2018-05-11T21:11:33.278Z,10.23
2018-05-11T21:14:01.655Z,11.40
2018-05-11T21:16:30.060Z,11.03
2018-05-11T21:18:58.443Z,9.70
2018-05-11T21:21:27.587Z,10.43
2018-05-11T21:23:55.969Z,9.40
2018-05-11T21:26:24.352Z,9.77
2018-05-11T21:28:52.764Z,9.80
2018-05-11T21:31:21.165Z,10.97
2018-05-11T21:33:49.567Z,10.73
2018-05-11T21:36:17.974Z,10.67
2018-05-11T21:38:46.140Z,10.70
2018-05-11T21:41:14.564Z,10.90
2018-05-11T21:43:43.114Z,11.20
2018-05-11T21:46:11.497Z,11.10
2018-05-11T21:48:39.906Z,8.80
2018-05-11T21:51:08.288Z,8.60
2018-05-11T21:53:36.667Z,9.70
2018-05-11T21:56:05.051Z,9.73
2018-05-11T21:58:33.432Z,10.13
2018-05-11T22:01:02.066Z,9.83
2018-05-11T22:03:30.798Z,10.60
2018-05-11T22:05:59.207Z,9.53
2018-05-11T22:08:27.743Z,9.37
2018-05-11T22:10:56.117Z,8.33
2018-05-11T22:13:24.499Z,9.80
2018-05-11T22:15:52.899Z,9.30
2018-05-11T22:18:21.775Z,9.27
2018-05-11T22:20:50.173Z,10.10
2018-05-11T22:23:18.542Z,9.37
2018-05-11T22:25:46.921Z,10.57
2018-05-11T22:28:15.300Z,9.33
2018-05-11T22:30:43.699Z,10.93
2018-05-11T22:33:12.083Z,11.40
2018-05-11T22:35:40.483Z,11.50
2018-05-11T22:38:08.882Z,10.17
2018-05-11T22:40:37.263Z,9.77
2018-05-11T22:43:05.792Z,10.27
2018-05-11T22:45:34.194Z,10.93
2018-05-11T22:48:02.604Z,11.30
2018-05-11T22:50:30.981Z,9.90
2018-05-11T22:52:59.378Z,10.47
2018-05-11T22:55:29.502Z,10.10
2018-05-11T22:57:57.879Z,11.73
2018-05-11T23:00:28.309Z,12.27
2018-05-11T23:02:56.710Z,10.70
2018-05-11T23:05:25.090Z,12.30
2018-05-11T23:07:53.478Z,11.20
2018-05-11T23:10:21.865Z,11.30
2018-05-11T23:12:50.244Z,12.20
2018-05-11T23:15:19.905Z,11.50
2018-05-11T23:17:48.332Z,11.00
2018-05-11T23:20:18.630Z,11.90
2018-05-11T23:22:47.590Z,11.33
2018-05-11T23:25:19.652Z,11.93
2018-05-11T23:27:48.055Z,11.60
2018-05-11T23:30:20.401Z,10.70
2018-05-11T23:32:49.112Z,11.10
2018-05-11T23:35:21.150Z,11.80
2018-05-11T23:37:49.565Z,12.50
2018-05-11T23:40:17.609Z,12.70
2018-05-11T23:42:46.006Z,12.20
2018-05-11T23:45:18.399Z,13.60
2018-05-11T23:47:47.452Z,12.00
2018-05-11T23:50:18.865Z,12.37
2018-05-11T23:52:47.224Z,12.20
2018-05-11T23:55:15.925Z,11.60
2018-05-11T23:57:45.857Z,12.03
